createdAt,value
2022-08-24T00:02:01.376Z,24.37
2022-08-24T00:04:31.976Z,24.38
2022-08-24T00:07:02.231Z,24.28
2022-08-24T00:09:31.715Z,24.29
2022-08-24T00:12:00.388Z,24.06
2022-08-24T00:14:27.962Z,24.23
2022-08-24T00:16:56.061Z,24.16
2022-08-24T00:19:25.122Z,24.18
2022-08-24T00:21:52.782Z,24.10
2022-08-24T00:24:21.622Z,24.16
2022-08-24T00:26:49.792Z,24.00
2022-08-24T00:29:19.068Z,24.13
2022-08-24T00:31:47.332Z,24.11
2022-08-24T00:34:17.806Z,24.05
2022-08-24T00:36:46.115Z,23.96
2022-08-24T00:39:14.391Z,23.97
2022-08-24T00:41:44.914Z,23.92
2022-08-24T00:44:14.415Z,24.03
2022-08-24T00:46:53.837Z,24.14
2022-08-24T00:49:30.106Z,24.17
2022-08-24T00:52:15.401Z,23.96
2022-08-24T00:54:49.013Z,23.92
2022-08-24T00:57:20.348Z,23.97
2022-08-24T00:59:55.774Z,23.90
2022-08-24T01:02:29.889Z,23.75
2022-08-24T01:05:04.384Z,23.74
2022-08-24T01:07:33.723Z,23.92
2022-08-24T01:10:06.062Z,24.04
2022-08-24T01:12:37.052Z,24.24
2022-08-24T01:15:07.942Z,24.34
2022-08-24T01:17:54.872Z,24.33
2022-08-24T01:20:26.481Z,24.26
2022-08-24T01:23:19.714Z,24.31
2022-08-24T01:25:47.287Z,24.11
2022-08-24T01:28:27.183Z,23.81
2022-08-24T01:30:57.094Z,23.77
2022-08-24T01:33:28.282Z,23.97
2022-08-24T01:36:28.234Z,23.95
2022-08-24T01:39:00.723Z,23.68
2022-08-24T01:41:29.455Z,23.67
2022-08-24T01:43:59.511Z,23.59
2022-08-24T01:46:29.559Z,23.66
2022-08-24T01:48:58.652Z,23.59
2022-08-24T01:51:30.737Z,23.56
2022-08-24T01:54:03.527Z,23.68
2022-08-24T01:56:33.406Z,23.83
2022-08-24T01:59:02.117Z,23.72
2022-08-24T02:01:34.806Z,23.86
2022-08-24T02:04:05.657Z,23.89
2022-08-24T02:06:37.975Z,23.64
2022-08-24T02:09:08.341Z,23.57
2022-08-24T02:11:37.940Z,23.53
2022-08-24T02:14:06.643Z,23.43
2022-08-24T02:16:34.507Z,23.39
2022-08-24T02:19:02.564Z,23.45
2022-08-24T02:21:30.576Z,23.56
2022-08-24T02:23:58.136Z,23.15
2022-08-24T02:26:28.422Z,22.93
2022-08-24T02:29:03.557Z,23.02
2022-08-24T02:31:33.294Z,23.08
2022-08-24T02:34:01.741Z,23.23
2022-08-24T02:36:31.254Z,23.25
2022-08-24T02:39:00.584Z,23.29
2022-08-24T02:41:28.310Z,23.46
2022-08-24T02:43:57.407Z,23.40
2022-08-24T02:46:28.544Z,23.19
2022-08-24T02:49:11.155Z,23.02
2022-08-24T02:51:45.229Z,23.10
2022-08-24T02:54:18.422Z,23.23
2022-08-24T02:56:48.608Z,23.39
2022-08-24T02:59:17.877Z,23.41
2022-08-24T03:01:47.202Z,23.45
2022-08-24T03:04:18.870Z,23.40
2022-08-24T03:06:47.277Z,23.51
2022-08-24T03:09:14.832Z,23.45
2022-08-24T03:11:45.467Z,23.33
2022-08-24T03:14:14.606Z,23.28
2022-08-24T03:16:42.465Z,23.20
2022-08-24T03:19:10.465Z,23.17
2022-08-24T03:21:38.946Z,23.20
2022-08-24T03:24:06.670Z,23.09
2022-08-24T03:26:35.054Z,23.13
2022-08-24T03:29:03.108Z,23.17
2022-08-24T03:31:33.896Z,23.22
2022-08-24T03:34:02.873Z,23.19
2022-08-24T03:36:30.621Z,22.94
2022-08-24T03:38:59.180Z,22.75
2022-08-24T03:41:27.417Z,22.64
2022-08-24T03:43:56.881Z,22.59
2022-08-24T03:46:28.894Z,22.67
2022-08-24T03:48:58.366Z,22.65
2022-08-24T03:51:28.621Z,22.68
2022-08-24T03:53:58.670Z,22.55
2022-08-24T03:56:29.292Z,22.54
2022-08-24T03:58:57.842Z,22.59
2022-08-24T04:01:28.783Z,22.80
2022-08-24T04:03:56.956Z,22.67
2022-08-24T04:06:30.347Z,22.38
2022-08-24T04:08:59.081Z,22.11
2022-08-24T04:11:28.846Z,21.98
2022-08-24T04:13:58.651Z,21.91
2022-08-24T04:16:28.343Z,21.96
2022-08-24T04:19:20.428Z,22.06
2022-08-24T04:21:48.896Z,22.37
2022-08-24T04:24:20.684Z,22.47
2022-08-24T04:26:48.383Z,22.48
2022-08-24T04:29:18.721Z,22.44
2022-08-24T04:31:51.826Z,22.55
2022-08-24T04:34:19.926Z,22.66
2022-08-24T04:36:48.817Z,22.67
2022-08-24T04:39:17.375Z,22.73
2022-08-24T04:41:53.500Z,22.80
2022-08-24T04:44:22.991Z,22.71
2022-08-24T04:46:50.852Z,22.82
2022-08-24T04:49:19.318Z,22.67
2022-08-24T04:51:46.812Z,22.38
2022-08-24T04:54:16.787Z,22.19
2022-08-24T04:56:49.723Z,22.14
2022-08-24T04:59:17.258Z,22.22
2022-08-24T05:01:45.377Z,22.35
2022-08-24T05:04:14.514Z,22.52
2022-08-24T05:06:42.910Z,22.73
2022-08-24T05:09:10.661Z,22.82
2022-08-24T05:11:42.373Z,23.07
2022-08-24T05:14:20.874Z,23.28
2022-08-24T05:16:52.970Z,22.97
2022-08-24T05:19:23.647Z,22.91
2022-08-24T05:21:51.702Z,23.05
2022-08-24T05:24:19.999Z,23.17
2022-08-24T05:26:48.080Z,23.33
2022-08-24T05:29:19.267Z,23.59
2022-08-24T05:31:50.215Z,23.76
2022-08-24T05:34:18.704Z,23.92
2022-08-24T05:36:47.355Z,24.09
2022-08-24T05:39:39.199Z,24.27
2022-08-24T05:42:09.608Z,24.32
2022-08-24T05:44:44.188Z,24.49
2022-08-24T05:47:12.355Z,24.49
2022-08-24T05:49:41.661Z,24.53
2022-08-24T05:52:11.757Z,24.53
2022-08-24T05:54:40.953Z,24.68
2022-08-24T05:57:11.504Z,24.62
2022-08-24T06:00:00.774Z,24.74
2022-08-24T06:02:29.492Z,24.86
2022-08-24T06:04:58.539Z,25.15
2022-08-24T06:07:27.055Z,25.11
2022-08-24T06:10:09.878Z,25.14
2022-08-24T06:12:46.794Z,25.21
2022-08-24T06:15:14.776Z,25.36
2022-08-24T06:17:42.841Z,25.47
2022-08-24T06:20:10.877Z,25.42
2022-08-24T06:22:38.919Z,25.75
2022-08-24T06:25:25.851Z,25.92
2022-08-24T06:27:54.101Z,26.01
2022-08-24T06:30:22.239Z,26.33
2022-08-24T06:33:05.341Z,26.25
2022-08-24T06:35:46.849Z,26.33
2022-08-24T06:38:14.972Z,26.42
2022-08-24T06:40:46.453Z,26.24
2022-08-24T06:43:14.967Z,26.35
2022-08-24T06:45:53.272Z,26.62
2022-08-24T06:48:24.860Z,26.60
2022-08-24T06:50:54.477Z,26.73
2022-08-24T06:53:22.244Z,26.71
2022-08-24T06:55:58.718Z,26.74
2022-08-24T06:58:29.056Z,26.83
2022-08-24T07:00:57.644Z,26.83
2022-08-24T07:03:25.874Z,26.95
2022-08-24T07:06:02.678Z,26.96
2022-08-24T07:08:56.955Z,27.10
2022-08-24T07:11:25.580Z,27.32
2022-08-24T07:13:54.602Z,27.38
2022-08-24T07:16:22.923Z,27.71
2022-08-24T07:18:54.106Z,27.63
2022-08-24T07:21:23.502Z,27.51
2022-08-24T07:23:57.941Z,27.46
2022-08-24T07:26:28.729Z,27.59
2022-08-24T07:29:06.883Z,27.49
2022-08-24T07:31:41.374Z,27.54
2022-08-24T07:34:15.810Z,27.75
2022-08-24T07:36:45.426Z,28.08
2022-08-24T07:39:14.113Z,28.14
2022-08-24T07:42:10.926Z,27.79
2022-08-24T07:44:32.771Z,27.71
2022-08-24T07:47:15.124Z,27.80
2022-08-24T07:49:49.556Z,27.87
2022-08-24T07:52:17.293Z,28.10
2022-08-24T07:54:46.967Z,28.09
2022-08-24T07:57:15.325Z,27.96
2022-08-24T07:59:43.273Z,28.04
2022-08-24T08:02:11.713Z,27.74
2022-08-24T08:04:42.412Z,27.93
2022-08-24T08:07:11.752Z,28.06
2022-08-24T08:09:39.868Z,28.13
2022-08-24T08:12:10.357Z,28.34
2022-08-24T08:14:46.070Z,28.40
2022-08-24T08:17:15.007Z,28.45
2022-08-24T08:19:43.902Z,28.54
2022-08-24T08:22:31.999Z,28.73
2022-08-24T08:25:19.294Z,28.70
2022-08-24T08:27:47.491Z,28.56
2022-08-24T08:30:15.920Z,28.34
2022-08-24T08:32:44.956Z,28.37
2022-08-24T08:35:14.603Z,28.55
2022-08-24T08:37:43.440Z,28.66
2022-08-24T08:40:27.322Z,28.76
2022-08-24T08:42:58.101Z,28.66
2022-08-24T08:45:47.567Z,28.77
2022-08-24T08:49:41.110Z,28.73
2022-08-24T08:52:58.321Z,29.22
2022-08-24T08:55:33.828Z,29.15
2022-08-24T08:58:14.653Z,28.98
2022-08-24T09:00:56.184Z,29.19
2022-08-24T09:03:32.805Z,29.43
2022-08-24T09:06:19.321Z,29.61
2022-08-24T09:08:59.166Z,29.71
2022-08-24T09:11:41.701Z,29.74
2022-08-24T09:14:15.779Z,29.88
2022-08-24T09:17:13.083Z,30.09
2022-08-24T09:20:05.917Z,30.31
2022-08-24T09:22:40.933Z,29.50
2022-08-24T09:25:26.368Z,29.55
2022-08-24T09:28:36.001Z,30.02
2022-08-24T09:31:23.066Z,30.11
2022-08-24T09:34:09.744Z,30.21
2022-08-24T09:36:52.566Z,30.30
2022-08-24T09:39:42.331Z,30.70
2022-08-24T09:42:25.798Z,31.37
2022-08-24T09:45:12.189Z,31.99
2022-08-24T09:48:21.264Z,32.96
2022-08-24T09:51:20.085Z,33.48
2022-08-24T09:54:00.321Z,34.31
2022-08-24T09:57:11.753Z,34.14
2022-08-24T10:00:07.545Z,35.32
2022-08-24T10:02:58.790Z,35.96
2022-08-24T10:05:26.751Z,35.77
2022-08-24T10:08:14.506Z,34.91
2022-08-24T10:11:04.304Z,35.36
2022-08-24T10:13:42.716Z,35.97
2022-08-24T10:16:35.157Z,36.31
2022-08-24T10:19:24.984Z,36.09
2022-08-24T10:21:52.802Z,36.35
2022-08-24T10:24:48.058Z,37.02
2022-08-24T10:27:40.428Z,37.70
2022-08-24T10:30:23.563Z,36.47
2022-08-24T10:33:14.597Z,37.34
2022-08-24T10:36:08.290Z,37.92
2022-08-24T10:39:07.067Z,38.33
2022-08-24T10:41:53.452Z,38.67
2022-08-24T10:44:40.837Z,39.33
2022-08-24T10:47:22.337Z,40.02
2022-08-24T10:50:22.043Z,39.53
2022-08-24T10:53:06.464Z,39.45
2022-08-24T10:55:35.766Z,38.71
2022-08-24T10:58:25.181Z,37.86
2022-08-24T11:00:52.985Z,37.08
2022-08-24T11:03:28.382Z,37.66
2022-08-24T11:05:57.353Z,38.28
2022-08-24T11:08:33.790Z,39.08
2022-08-24T11:11:12.785Z,40.19
2022-08-24T11:14:00.226Z,40.14
2022-08-24T11:16:43.194Z,40.28
2022-08-24T11:19:33.658Z,38.98
2022-08-24T11:22:06.158Z,39.23
2022-08-24T11:24:43.272Z,40.47
2022-08-24T11:27:16.716Z,39.74
2022-08-24T11:29:50.808Z,38.96
2022-08-24T11:32:51.295Z,39.68
2022-08-24T11:35:45.096Z,39.25
2022-08-24T11:38:22.915Z,39.28
2022-08-24T11:40:55.993Z,38.85
2022-08-24T11:43:38.494Z,38.87
2022-08-24T11:46:23.925Z,39.46
2022-08-24T11:49:20.780Z,40.19
2022-08-24T11:51:58.117Z,40.22
2022-08-24T11:54:31.205Z,39.84
2022-08-24T11:57:10.771Z,40.08
2022-08-24T11:59:54.666Z,41.22
2022-08-24T12:02:45.845Z,38.80
2022-08-24T12:05:28.682Z,39.47
2022-08-24T12:08:26.933Z,40.58
2022-08-24T12:11:10.391Z,40.25
2022-08-24T12:13:38.404Z,39.21
2022-08-24T12:16:34.025Z,39.89
2022-08-24T12:19:16.701Z,39.29
2022-08-24T12:21:50.155Z,40.02
2022-08-24T12:24:46.593Z,41.02
2022-08-24T12:27:22.640Z,41.33
2022-08-24T12:30:05.564Z,41.58
2022-08-24T12:32:42.447Z,41.85
2022-08-24T12:35:18.736Z,41.55
2022-08-24T12:37:57.975Z,40.84
2022-08-24T12:40:43.141Z,40.75
2022-08-24T12:43:27.426Z,40.15
2022-08-24T12:46:00.100Z,41.07
2022-08-24T12:48:39.505Z,41.40
2022-08-24T12:51:16.699Z,40.93
2022-08-24T12:54:24.917Z,40.72
2022-08-24T12:56:56.309Z,41.60
2022-08-24T12:59:52.839Z,42.25
2022-08-24T13:02:20.694Z,42.70
2022-08-24T13:04:51.328Z,42.49
2022-08-24T13:07:18.795Z,42.72
2022-08-24T13:09:52.398Z,43.47
2022-08-24T13:12:38.347Z,41.69
2022-08-24T13:15:24.002Z,42.59
2022-08-24T13:18:02.612Z,43.61
2022-08-24T13:20:37.803Z,44.54
2022-08-24T13:23:12.965Z,43.16
2022-08-24T13:25:56.040Z,44.47
2022-08-24T13:28:24.997Z,45.30
2022-08-24T13:31:10.575Z,45.78
2022-08-24T13:33:47.280Z,45.30
2022-08-24T13:36:33.873Z,44.93
2022-08-24T13:39:07.279Z,45.37
2022-08-24T13:41:46.162Z,45.08
2022-08-24T13:44:47.572Z,44.68
2022-08-24T13:47:22.523Z,45.25
2022-08-24T13:49:51.877Z,44.00
2022-08-24T13:52:45.159Z,45.20
2022-08-24T13:55:32.636Z,45.55
2022-08-24T13:58:24.628Z,45.60
2022-08-24T14:01:03.837Z,47.41
2022-08-24T14:03:45.183Z,46.36
2022-08-24T14:06:23.320Z,47.11
2022-08-24T14:09:09.558Z,46.64
2022-08-24T14:11:44.215Z,47.18
2022-08-24T14:14:26.585Z,47.56
2022-08-24T14:17:44.177Z,47.48
2022-08-24T14:20:41.333Z,45.90
2022-08-24T14:23:20.957Z,44.72
2022-08-24T14:25:49.668Z,46.19
2022-08-24T14:28:40.734Z,46.68
2022-08-24T14:31:29.522Z,46.60
2022-08-24T14:34:17.013Z,46.54
2022-08-24T14:37:18.691Z,47.66
2022-08-24T14:40:04.480Z,47.85
2022-08-24T14:42:39.423Z,47.78
2022-08-24T14:45:18.552Z,46.66
2022-08-24T14:48:05.042Z,46.33
2022-08-24T14:50:40.019Z,47.37
2022-08-24T14:53:27.142Z,45.85
2022-08-24T14:56:24.988Z,46.47
2022-08-24T14:59:32.198Z,46.00
2022-08-24T15:02:29.393Z,45.24
2022-08-24T15:05:09.141Z,46.46
2022-08-24T15:07:37.433Z,46.30
2022-08-24T15:10:14.933Z,47.08
2022-08-24T15:12:54.192Z,47.64
2022-08-24T15:15:27.857Z,44.96
2022-08-24T15:18:06.443Z,47.05
2022-08-24T15:20:58.536Z,46.19
2022-08-24T15:27:13.248Z,46.47
2022-08-24T15:29:55.007Z,46.54
2022-08-24T15:32:28.281Z,46.82
2022-08-24T15:34:58.462Z,45.39
2022-08-24T15:37:26.617Z,44.95
2022-08-24T15:39:54.163Z,44.80
2022-08-24T15:42:22.864Z,45.65
2022-08-24T15:44:51.783Z,45.51
2022-08-24T15:47:35.881Z,44.43
2022-08-24T15:50:08.274Z,45.08
2022-08-24T15:52:51.270Z,44.91
2022-08-24T15:55:24.977Z,44.73
2022-08-24T15:57:53.290Z,44.59
2022-08-24T16:00:44.611Z,44.71
2022-08-24T16:03:27.133Z,42.74
2022-08-24T16:06:16.020Z,42.82
2022-08-24T16:09:05.083Z,43.43
2022-08-24T16:11:38.728Z,44.59
2022-08-24T16:14:29.405Z,44.72
2022-08-24T16:16:59.755Z,44.62
2022-08-24T16:19:35.687Z,44.21
2022-08-24T16:22:13.089Z,43.84
2022-08-24T16:24:43.449Z,42.39
2022-08-24T16:27:14.805Z,43.75
2022-08-24T16:29:44.835Z,43.27
2022-08-24T16:32:32.006Z,42.98
2022-08-24T16:35:19.583Z,44.14
2022-08-24T16:37:47.786Z,42.30
2022-08-24T16:40:15.778Z,42.13
2022-08-24T16:42:43.546Z,42.99
2022-08-24T16:45:14.928Z,42.06
2022-08-24T16:47:42.607Z,41.33
2022-08-24T16:50:11.274Z,41.00
2022-08-24T16:52:39.830Z,40.64
2022-08-24T16:55:08.454Z,40.44
2022-08-24T16:57:37.530Z,39.99
2022-08-24T17:00:09.649Z,39.65
2022-08-24T17:02:37.868Z,39.03
2022-08-24T17:05:06.741Z,38.59
2022-08-24T17:07:34.907Z,38.53
2022-08-24T17:10:04.636Z,37.69
2022-08-24T17:12:32.416Z,36.31
2022-08-24T17:15:01.200Z,35.64
2022-08-24T17:17:29.341Z,35.15
2022-08-24T17:19:56.993Z,34.74
2022-08-24T17:22:26.589Z,34.23
2022-08-24T17:24:55.028Z,33.81
2022-08-24T17:27:33.168Z,33.50
2022-08-24T17:30:05.117Z,33.03
2022-08-24T17:32:33.962Z,32.45
2022-08-24T17:35:03.699Z,32.54
2022-08-24T17:37:32.786Z,32.27
2022-08-24T17:40:00.850Z,32.07
2022-08-24T17:42:49.658Z,31.48
2022-08-24T17:45:16.784Z,31.14
2022-08-24T17:47:45.019Z,31.03
2022-08-24T17:50:14.851Z,30.94
2022-08-24T17:52:44.134Z,31.03
2022-08-24T17:55:14.074Z,30.90
2022-08-24T17:57:45.707Z,30.90
2022-08-24T18:00:17.202Z,31.03
2022-08-24T18:02:45.798Z,31.07
2022-08-24T18:05:14.947Z,31.08
2022-08-24T18:07:54.892Z,30.99
2022-08-24T18:10:27.905Z,30.82
2022-08-24T18:12:58.146Z,30.74
2022-08-24T18:15:34.585Z,30.69
2022-08-24T18:18:08.864Z,30.68
2022-08-24T18:20:40.334Z,30.65
2022-08-24T18:23:11.354Z,30.60
2022-08-24T18:25:51.154Z,30.55
2022-08-24T18:28:22.184Z,30.50
2022-08-24T18:30:51.766Z,30.44
2022-08-24T18:33:19.404Z,30.41
2022-08-24T18:35:47.868Z,30.21
2022-08-24T18:38:15.367Z,30.33
2022-08-24T18:40:52.078Z,30.28
2022-08-24T18:43:24.071Z,30.26
2022-08-24T18:45:53.338Z,30.18
2022-08-24T18:48:22.087Z,30.25
2022-08-24T18:50:51.163Z,30.21
2022-08-24T18:53:19.800Z,30.24
2022-08-24T18:55:48.985Z,30.22
2022-08-24T18:58:17.053Z,30.13
2022-08-24T19:00:45.392Z,29.99
2022-08-24T19:03:17.612Z,29.82
2022-08-24T19:05:46.465Z,29.79
2022-08-24T19:08:13.970Z,29.63
2022-08-24T19:10:41.985Z,29.54
2022-08-24T19:13:15.849Z,29.24
2022-08-24T19:15:46.692Z,29.04
2022-08-24T19:18:16.485Z,28.95
2022-08-24T19:20:48.483Z,28.79
2022-08-24T19:23:30.097Z,28.60
2022-08-24T19:25:58.670Z,28.61
2022-08-24T19:28:27.110Z,28.39
2022-08-24T19:31:01.968Z,28.28
2022-08-24T19:33:35.845Z,28.28
2022-08-24T19:36:04.633Z,28.25
2022-08-24T19:38:32.364Z,28.32
2022-08-24T19:41:02.560Z,28.29
2022-08-24T19:44:00.108Z,28.24
2022-08-24T19:46:27.969Z,28.26
2022-08-24T19:48:56.248Z,28.05
2022-08-24T19:51:24.871Z,27.83
2022-08-24T19:53:53.112Z,27.65
2022-08-24T19:56:20.865Z,27.69
2022-08-24T19:58:57.631Z,27.87
2022-08-24T20:01:34.802Z,28.00
2022-08-24T20:04:06.206Z,28.12
2022-08-24T20:06:35.919Z,28.06
2022-08-24T20:09:04.920Z,27.82
2022-08-24T20:11:32.664Z,27.73
2022-08-24T20:14:02.792Z,27.71
2022-08-24T20:16:44.378Z,27.77
2022-08-24T20:19:12.489Z,27.87
2022-08-24T20:21:40.339Z,27.66
2022-08-24T20:24:08.868Z,27.48
2022-08-24T20:26:44.245Z,27.31
2022-08-24T20:29:12.753Z,27.27
2022-08-24T20:31:41.280Z,27.23
2022-08-24T20:34:09.087Z,27.26
2022-08-24T20:36:40.143Z,27.24
2022-08-24T20:39:10.884Z,27.06
2022-08-24T20:41:40.615Z,27.01
2022-08-24T20:44:09.320Z,27.18
2022-08-24T20:46:38.666Z,27.29
2022-08-24T20:49:07.810Z,27.23
2022-08-24T20:51:42.275Z,27.11
2022-08-24T20:54:11.594Z,27.14
2022-08-24T20:56:39.345Z,27.27
2022-08-24T20:59:09.815Z,27.30
2022-08-24T21:01:38.995Z,27.30
2022-08-24T21:04:06.974Z,27.03
2022-08-24T21:06:34.855Z,26.95
2022-08-24T21:09:04.808Z,26.87
2022-08-24T21:11:33.402Z,26.73
2022-08-24T21:14:05.632Z,26.65
2022-08-24T21:16:36.219Z,26.73
2022-08-24T21:19:04.371Z,26.71
2022-08-24T21:21:33.673Z,26.68
2022-08-24T21:24:01.992Z,26.78
2022-08-24T21:26:32.469Z,26.78
2022-08-24T21:29:00.329Z,26.87
2022-08-24T21:31:28.342Z,26.82
2022-08-24T21:34:15.376Z,26.71
2022-08-24T21:36:43.818Z,26.79
2022-08-24T21:39:11.898Z,26.87
2022-08-24T21:41:40.770Z,26.83
2022-08-24T21:44:08.514Z,26.85
2022-08-24T21:46:39.013Z,26.78
2022-08-24T21:49:07.877Z,26.65
2022-08-24T21:51:40.572Z,26.38
2022-08-24T21:54:09.022Z,26.33
2022-08-24T21:56:36.656Z,26.26
2022-08-24T21:59:04.587Z,26.22
2022-08-24T22:01:32.564Z,26.26
2022-08-24T22:04:01.476Z,26.38
2022-08-24T22:06:31.781Z,26.50
2022-08-24T22:09:00.465Z,26.46
2022-08-24T22:11:29.614Z,26.35
2022-08-24T22:13:58.021Z,26.40
2022-08-24T22:16:26.127Z,26.23
2022-08-24T22:18:54.091Z,26.36
2022-08-24T22:21:25.275Z,26.45
2022-08-24T22:23:52.727Z,26.43
2022-08-24T22:26:24.153Z,26.41
2022-08-24T22:28:52.006Z,26.38
2022-08-24T22:31:24.008Z,26.50
2022-08-24T22:33:52.049Z,26.44
2022-08-24T22:36:19.725Z,26.22
2022-08-24T22:38:48.073Z,25.95
2022-08-24T22:41:16.764Z,25.93
2022-08-24T22:44:02.963Z,26.09
2022-08-24T22:46:30.936Z,26.14
2022-08-24T22:49:00.547Z,26.08
2022-08-24T22:51:29.016Z,25.90
2022-08-24T22:53:57.342Z,25.93
2022-08-24T22:56:29.613Z,25.91
2022-08-24T22:58:58.465Z,25.78
2022-08-24T23:01:42.095Z,25.94
2022-08-24T23:04:14.521Z,25.98
2022-08-24T23:06:42.423Z,26.04
2022-08-24T23:09:11.062Z,26.03
2022-08-24T23:11:39.422Z,26.07
2022-08-24T23:14:09.106Z,26.05
2022-08-24T23:16:39.653Z,26.06
2022-08-24T23:19:26.820Z,25.86
2022-08-24T23:21:55.069Z,25.61
2022-08-24T23:24:23.674Z,25.48
2022-08-24T23:26:52.039Z,25.41
2022-08-24T23:29:20.637Z,25.19
2022-08-24T23:31:48.930Z,25.00
2022-08-24T23:34:17.029Z,24.94
2022-08-24T23:36:45.790Z,24.82
2022-08-24T23:39:13.890Z,24.72
2022-08-24T23:41:46.120Z,24.90
2022-08-24T23:44:20.976Z,24.74
2022-08-24T23:46:49.332Z,24.94
2022-08-24T23:49:19.750Z,25.11
2022-08-24T23:51:49.016Z,24.99
2022-08-24T23:54:18.486Z,24.75
2022-08-24T23:56:49.189Z,24.74
2022-08-24T23:59:21.734Z,24.90
